Airfield :
LOGIN :

Register | Disclaimer

   EN    FR    IT 

 










Legend :    VFR   Marginal VFR   IFR   Intensive IFR   Very Intensive IFR
Visi :
Ceiling :
>= 8 km
>= 3000ft
5 to 8 km
1000 to 3000 ft
1500m to 5 km
500 to 1000 ft
800 to 1500m
200 to 500 ft
< 800m
< 200 ft
Symbols :   Thunderstorms  Fog  Heavy snow  Heavy precipitations  Wind > 20 kt
SIGMETs :     Misc.  Thunderstorms  Icing  Turbulence  Mountain Waves  Volcanic Ashes







- Airport Elevation : 392 ft
- IATA code : CDG
- Download approach charts


LFPG - Paris-Aeroport Charles De Gaulle

CURRENT METAR :
  • 162200Z 25007KT 210V270 9999 BKN022 BKN036 03/02 Q1021 TEMPO 4000 -RASN

EXPIRED METARs :
  • 162130Z 26003KT 8000 -RA SCT016 BKN021 03/01 Q1021 TEMPO 4000 -RASN
  • 162100Z 25004KT 9999 -RA SCT024 BKN040 03/01 Q1021 TEMPO 4000 -RASN
  • 162030Z VRB03KT 9999 -RA SCT026 BKN036 03/01 Q1022 TEMPO 4000 -RASN
  • 162000Z 29005KT 9999 FEW035 BKN066 03/00 Q1021 NOSIG
  • 161930Z 28006KT 9999 -RA FEW046 BKN066 BKN170 03/M00 Q1021 NOSIG

TAF AMD TAF LFPG
Valid from the 16 at 20:00 until the 18 at 00:00 UTC


162025Z 1620/1724 28006KT 9999 BKN026
PROB30
TEMPO 1620/1624 4000 -RASN BKN013
BECMG 1700/1702 VRB03KT 4000 BR
BECMG 1702/1704 2500 BR BKN005
PROB40
TEMPO 1703/1710 0800 BCFG BKN003
BECMG 1711/1713 23005KT 8000 NSW
BECMG 1715/1717 BKN010 BKN025
BECMG 1720/1722 BKN013 TX05/1623Z TN00/1709Z
ATIS : +33 1 48 62 10 92
No reported NOTAMs for that airfield.



MET'MAP, your aeronautical weather chart ! - Copyright ORBIFLY December 2007 - Disclaimer

ORBIFLY MET'MAP TEAM :

Programming & Development : Alexandra Zaïnal
Concept & Development : Baudouin d'Aumeries
Co-Development & Prog : Marc-Olivier Méhu
Technical & hardware support : Manuel Goepfert

Contact : metmap@orbifly.com




SOURCES & CREDITS :

   NOAA